createdAt,value
2018-07-26T00:01:53.186Z,33.38
2018-07-26T00:04:24.431Z,32.98
2018-07-26T00:06:56.134Z,32.95
2018-07-26T00:09:29.232Z,33.17
2018-07-26T00:12:01.288Z,32.71
2018-07-26T00:14:33.703Z,33.56
2018-07-26T00:17:05.969Z,33.25
2018-07-26T00:19:39.534Z,32.19
2018-07-26T00:22:11.418Z,32.22
2018-07-26T00:24:47.839Z,31.99
2018-07-26T00:27:19.321Z,31.84
2018-07-26T00:29:53.661Z,32.16
2018-07-26T00:32:26.009Z,31.75
2018-07-26T00:34:57.254Z,31.91
2018-07-26T00:37:29.547Z,31.90
2018-07-26T00:40:01.814Z,31.47
2018-07-26T00:42:37.661Z,31.76
2018-07-26T00:45:09.163Z,31.79
2018-07-26T00:47:40.458Z,32.06
2018-07-26T00:50:12.783Z,31.77
2018-07-26T00:52:45.818Z,31.64
2018-07-26T00:55:18.332Z,31.19
2018-07-26T00:57:50.506Z,31.62
2018-07-26T01:00:22.763Z,31.59
2018-07-26T01:02:56.952Z,31.39
2018-07-26T01:05:29.130Z,31.82
2018-07-26T01:08:00.660Z,31.20
2018-07-26T01:10:35.459Z,31.51
2018-07-26T01:13:11.258Z,31.93
2018-07-26T01:15:43.477Z,31.92
2018-07-26T01:18:15.781Z,31.15
2018-07-26T01:20:48.123Z,31.04
2018-07-26T01:23:19.625Z,31.34
2018-07-26T01:25:51.994Z,31.84
2018-07-26T01:28:23.954Z,31.88
2018-07-26T01:30:56.210Z,31.28
2018-07-26T01:33:30.799Z,31.48
2018-07-26T01:36:03.040Z,32.31
2018-07-26T01:38:36.224Z,31.84
2018-07-26T01:41:09.394Z,31.67
2018-07-26T01:47:23.915Z,31.70
2018-07-26T01:49:57.086Z,32.09
2018-07-26T01:52:29.639Z,31.36
2018-07-26T01:55:02.030Z,31.49
2018-07-26T01:57:33.284Z,31.73
2018-07-26T02:00:08.858Z,31.55
2018-07-26T02:02:40.377Z,31.80
2018-07-26T02:07:39.469Z,31.58
2018-07-26T02:10:10.767Z,31.98
2018-07-26T02:12:42.993Z,31.82
2018-07-26T02:15:17.745Z,31.46
2018-07-26T02:17:49.827Z,31.53
2018-07-26T02:20:21.848Z,31.52
2018-07-26T02:22:55.247Z,31.25
2018-07-26T02:25:26.462Z,31.35
2018-07-26T02:27:57.833Z,31.38
2018-07-26T02:30:30.128Z,30.95
2018-07-26T02:33:02.337Z,31.10
2018-07-26T02:35:36.601Z,31.13
2018-07-26T02:38:09.243Z,30.17
2018-07-26T02:40:42.417Z,30.71
2018-07-26T02:43:20.451Z,30.37
2018-07-26T02:45:55.425Z,30.95
2018-07-26T02:48:27.878Z,30.25
2018-07-26T02:51:00.793Z,30.34
2018-07-26T02:53:33.294Z,30.22
2018-07-26T02:56:05.375Z,31.09
2018-07-26T02:58:36.563Z,30.89
2018-07-26T03:01:09.150Z,31.01
2018-07-26T03:03:41.354Z,30.48
2018-07-26T03:06:16.537Z,30.78
2018-07-26T03:08:49.925Z,31.09
2018-07-26T03:11:21.892Z,30.14
2018-07-26T03:13:59.112Z,31.10
2018-07-26T03:16:31.615Z,30.60
2018-07-26T03:19:02.902Z,30.84
2018-07-26T03:21:36.718Z,30.25
2018-07-26T03:24:08.085Z,31.07
2018-07-26T03:26:40.266Z,30.96
2018-07-26T03:29:12.498Z,30.46
2018-07-26T03:31:43.688Z,30.68
2018-07-26T03:34:16.144Z,30.53
2018-07-26T03:36:49.936Z,30.28
2018-07-26T03:39:22.278Z,30.15
2018-07-26T03:41:55.242Z,30.81
2018-07-26T03:44:28.261Z,30.83
2018-07-26T03:47:03.893Z,30.33
2018-07-26T03:49:40.911Z,30.64
2018-07-26T03:52:13.060Z,30.25
2018-07-26T03:54:46.684Z,30.64
2018-07-26T03:57:17.954Z,29.98
2018-07-26T03:59:52.269Z,29.95
2018-07-26T04:02:24.979Z,30.87
2018-07-26T04:04:56.306Z,30.29
2018-07-26T04:07:30.041Z,29.89
2018-07-26T04:10:04.486Z,29.99
2018-07-26T04:12:37.234Z,29.59
2018-07-26T04:15:09.975Z,29.91
2018-07-26T04:17:51.006Z,29.35
2018-07-26T04:20:26.511Z,29.21
2018-07-26T04:22:58.928Z,28.83
2018-07-26T04:25:32.192Z,29.45
2018-07-26T04:28:07.125Z,28.16
2018-07-26T04:30:40.517Z,28.07
2018-07-26T04:33:12.710Z,27.36
2018-07-26T04:35:48.538Z,27.76
2018-07-26T04:38:23.709Z,27.87
2018-07-26T04:40:56.176Z,27.25
2018-07-26T04:43:28.166Z,27.23
2018-07-26T04:46:00.742Z,26.98
2018-07-26T04:48:35.729Z,27.77
2018-07-26T04:51:09.860Z,27.85
2018-07-26T04:53:41.068Z,27.86
2018-07-26T04:56:12.338Z,27.54
2018-07-26T04:58:44.488Z,27.89
2018-07-26T05:01:17.421Z,27.23
2018-07-26T05:03:50.660Z,27.51
2018-07-26T05:06:27.687Z,26.54
2018-07-26T05:08:59.575Z,26.82
2018-07-26T05:11:31.766Z,26.16
2018-07-26T05:14:03.824Z,25.68
2018-07-26T05:16:35.666Z,25.21
2018-07-26T05:19:06.912Z,25.76
2018-07-26T05:21:41.551Z,25.62
2018-07-26T05:24:13.376Z,25.07
2018-07-26T05:26:47.784Z,24.89
2018-07-26T05:29:20.007Z,24.96
2018-07-26T05:31:52.843Z,24.71
2018-07-26T05:34:26.579Z,24.22
2018-07-26T05:36:58.206Z,23.80
2018-07-26T05:39:29.533Z,24.47
2018-07-26T05:42:01.758Z,23.45
2018-07-26T05:44:34.238Z,23.47
2018-07-26T05:47:07.655Z,23.62
2018-07-26T05:49:40.485Z,22.91
2018-07-26T05:52:12.704Z,23.54
2018-07-26T05:54:45.315Z,22.88
2018-07-26T05:57:19.009Z,22.22
2018-07-26T05:59:50.843Z,21.63
2018-07-26T06:02:24.283Z,21.23
2018-07-26T06:04:56.503Z,21.44
2018-07-26T06:07:28.448Z,22.05
2018-07-26T06:10:00.101Z,20.59
2018-07-26T06:12:31.931Z,20.95
2018-07-26T06:15:08.328Z,20.53
2018-07-26T06:17:40.454Z,20.61
2018-07-26T06:20:12.820Z,20.73
2018-07-26T06:22:46.028Z,20.83
2018-07-26T06:25:17.540Z,20.90
2018-07-26T06:27:49.079Z,20.69
2018-07-26T06:30:24.248Z,21.17
2018-07-26T06:32:56.736Z,20.53
2018-07-26T06:35:28.692Z,20.10
2018-07-26T06:38:05.334Z,20.06
2018-07-26T06:40:40.655Z,20.26
2018-07-26T06:43:13.490Z,20.40
2018-07-26T06:45:46.817Z,19.77
2018-07-26T06:48:19.475Z,19.51
2018-07-26T06:50:52.316Z,19.86
2018-07-26T06:53:23.624Z,19.74
2018-07-26T06:55:57.265Z,19.26
2018-07-26T06:58:30.379Z,19.78
2018-07-26T07:01:02.567Z,19.66
2018-07-26T07:03:33.923Z,19.21
2018-07-26T07:06:05.245Z,18.77
2018-07-26T07:08:38.540Z,19.01
2018-07-26T07:11:13.010Z,18.79
2018-07-26T07:13:45.068Z,18.75
2018-07-26T07:16:19.710Z,18.59
2018-07-26T07:18:53.809Z,18.56
2018-07-26T07:21:26.176Z,18.30
2018-07-26T07:23:58.156Z,18.66
2018-07-26T07:26:31.406Z,18.07
2018-07-26T07:29:07.616Z,17.57
2018-07-26T07:31:42.376Z,18.22
2018-07-26T07:34:13.998Z,17.93
2018-07-26T07:36:49.275Z,17.63
2018-07-26T07:39:21.129Z,17.56
2018-07-26T07:41:52.795Z,18.02
2018-07-26T07:44:28.280Z,17.74
2018-07-26T07:46:59.818Z,17.71
2018-07-26T07:49:31.241Z,17.05
2018-07-26T07:52:04.456Z,17.81
2018-07-26T07:54:35.685Z,17.92
2018-07-26T07:57:07.868Z,16.78
2018-07-26T07:59:39.528Z,16.84
2018-07-26T08:02:12.910Z,17.27
2018-07-26T08:04:45.038Z,17.60
2018-07-26T08:07:16.481Z,17.29
2018-07-26T08:09:49.699Z,17.97
2018-07-26T08:12:24.328Z,17.66
2018-07-26T08:14:58.522Z,17.50
2018-07-26T08:17:31.165Z,16.85
2018-07-26T08:20:03.390Z,17.21
2018-07-26T08:22:36.581Z,17.06
2018-07-26T08:25:10.154Z,17.60
2018-07-26T08:27:43.350Z,17.88
2018-07-26T08:30:19.132Z,17.68
2018-07-26T08:32:51.115Z,16.97
2018-07-26T08:35:25.284Z,17.99
2018-07-26T08:37:57.255Z,17.43
2018-07-26T08:40:29.801Z,18.18
2018-07-26T08:43:01.060Z,18.09
2018-07-26T08:45:32.855Z,17.65
2018-07-26T08:48:07.346Z,17.51
2018-07-26T08:50:38.724Z,17.17
2018-07-26T08:53:11.211Z,17.18
2018-07-26T08:55:42.611Z,17.95
2018-07-26T08:58:17.345Z,17.69
2018-07-26T09:00:49.928Z,18.25
2018-07-26T09:03:21.386Z,17.32
2018-07-26T09:05:53.662Z,17.52
2018-07-26T09:08:32.016Z,16.96
2018-07-26T09:11:08.696Z,17.21
2018-07-26T09:13:41.433Z,17.38
2018-07-26T09:16:14.508Z,17.63
2018-07-26T09:18:46.025Z,17.33
2018-07-26T09:21:17.441Z,16.76
2018-07-26T09:23:50.001Z,17.14
2018-07-26T09:26:22.239Z,17.35
2018-07-26T09:28:55.984Z,16.82
2018-07-26T09:31:29.271Z,16.89
2018-07-26T09:34:01.537Z,17.07
2018-07-26T09:36:36.813Z,16.75
2018-07-26T09:39:13.584Z,16.81
2018-07-26T09:41:47.353Z,15.97
2018-07-26T09:44:22.455Z,16.40
2018-07-26T09:46:54.857Z,15.81
2018-07-26T09:49:29.211Z,15.00
2018-07-26T09:52:04.643Z,15.92
2018-07-26T09:54:36.823Z,15.07
2018-07-26T09:57:12.387Z,15.07
2018-07-26T09:59:45.240Z,14.06
2018-07-26T10:02:24.962Z,15.24
2018-07-26T10:05:04.926Z,15.19
2018-07-26T10:07:45.186Z,15.04
2018-07-26T10:10:24.104Z,15.84
2018-07-26T10:13:10.272Z,15.27
2018-07-26T10:15:43.616Z,14.53
2018-07-26T10:18:18.476Z,15.25
2018-07-26T10:20:52.325Z,14.65
2018-07-26T10:23:27.193Z,14.94
2018-07-26T10:26:02.222Z,14.29
2018-07-26T10:28:35.772Z,14.04
2018-07-26T10:31:12.246Z,14.52
2018-07-26T10:33:45.346Z,14.06
2018-07-26T10:36:17.535Z,14.09
2018-07-26T10:38:52.760Z,12.97
2018-07-26T10:41:26.174Z,13.31
2018-07-26T10:44:03.704Z,13.62
2018-07-26T10:46:47.290Z,12.87
2018-07-26T10:49:20.375Z,13.28
2018-07-26T10:51:52.594Z,12.70
2018-07-26T10:54:25.757Z,13.31
2018-07-26T10:56:58.962Z,12.99
2018-07-26T10:59:32.915Z,12.77
2018-07-26T11:02:05.146Z,13.46
2018-07-26T11:04:39.871Z,13.26
2018-07-26T11:07:13.278Z,12.70
2018-07-26T11:09:48.097Z,12.88
2018-07-26T11:12:24.036Z,13.14
2018-07-26T11:15:07.368Z,12.66
2018-07-26T11:17:41.232Z,13.21
2018-07-26T11:20:22.472Z,13.04
2018-07-26T11:22:56.939Z,12.74
2018-07-26T11:25:31.204Z,12.93
2018-07-26T11:28:04.852Z,12.91
2018-07-26T11:30:40.387Z,13.08
2018-07-26T11:33:14.370Z,12.63
2018-07-26T11:35:47.904Z,12.88
2018-07-26T11:38:20.431Z,12.69
2018-07-26T11:40:55.841Z,12.52
2018-07-26T11:43:29.760Z,12.26
2018-07-26T11:46:03.946Z,12.56
2018-07-26T11:48:41.336Z,11.92
2018-07-26T11:51:17.597Z,11.65
2018-07-26T11:53:55.664Z,11.79
2018-07-26T11:56:30.541Z,11.40
2018-07-26T11:59:05.231Z,11.90
2018-07-26T12:01:40.461Z,11.58
2018-07-26T12:04:24.021Z,12.14
2018-07-26T12:07:01.886Z,11.84
2018-07-26T12:09:36.017Z,11.39
2018-07-26T12:12:12.641Z,11.70
2018-07-26T12:14:53.600Z,12.37
2018-07-26T12:17:32.545Z,12.59
2018-07-26T12:20:07.644Z,12.53
2018-07-26T12:22:43.702Z,11.68
2018-07-26T12:25:19.757Z,11.83
2018-07-26T12:27:55.338Z,11.44
2018-07-26T12:30:36.572Z,10.80
2018-07-26T12:33:14.995Z,11.61
2018-07-26T12:35:50.446Z,11.24
2018-07-26T12:38:26.376Z,11.52
2018-07-26T12:41:00.702Z,11.59
2018-07-26T12:43:34.387Z,12.05
2018-07-26T12:46:09.350Z,11.10
2018-07-26T12:48:44.280Z,11.37
2018-07-26T12:51:21.305Z,10.99
2018-07-26T12:53:57.646Z,11.69
2018-07-26T12:56:34.628Z,11.98
2018-07-26T12:59:10.932Z,11.59
2018-07-26T13:01:45.973Z,11.04
2018-07-26T13:04:19.333Z,11.68
2018-07-26T13:06:53.962Z,10.73
2018-07-26T13:09:28.268Z,11.46
2018-07-26T13:12:03.323Z,10.79
2018-07-26T13:14:38.585Z,10.79
2018-07-26T13:17:13.965Z,10.48
2018-07-26T13:19:47.668Z,10.97
2018-07-26T13:22:22.720Z,11.05
2018-07-26T13:25:00.318Z,11.22
2018-07-26T13:27:36.752Z,11.27
2018-07-26T13:30:12.208Z,11.22
2018-07-26T13:32:49.072Z,11.49
2018-07-26T13:35:24.577Z,10.46
2018-07-26T13:37:58.357Z,10.53
2018-07-26T13:40:32.964Z,11.16
2018-07-26T13:43:07.532Z,10.43
2018-07-26T13:45:41.009Z,10.83
2018-07-26T13:48:15.730Z,10.31
2018-07-26T13:50:51.468Z,10.10
2018-07-26T13:53:28.096Z,10.79
2018-07-26T13:56:05.649Z,11.09
2018-07-26T13:58:39.135Z,10.80
2018-07-26T14:01:17.229Z,10.76
2018-07-26T14:03:56.126Z,10.61
2018-07-26T14:06:30.617Z,10.83
2018-07-26T14:09:10.314Z,11.04
2018-07-26T14:11:44.853Z,10.32
2018-07-26T14:14:19.080Z,10.36
2018-07-26T14:16:53.908Z,9.92
2018-07-26T14:19:28.603Z,10.25
2018-07-26T14:22:06.258Z,10.02
2018-07-26T14:24:41.591Z,9.95
2018-07-26T14:27:24.970Z,9.49
2018-07-26T14:30:05.742Z,10.17
2018-07-26T14:32:50.783Z,10.27
2018-07-26T14:35:33.597Z,10.42
2018-07-26T14:38:10.183Z,10.40
2018-07-26T14:40:49.988Z,10.80
2018-07-26T14:43:24.394Z,10.19
2018-07-26T14:45:57.937Z,10.19
2018-07-26T14:48:37.474Z,9.81
2018-07-26T14:51:16.385Z,10.55
2018-07-26T14:53:55.357Z,10.33
2018-07-26T14:56:31.388Z,10.65
2018-07-26T14:59:12.164Z,10.50
2018-07-26T15:01:49.812Z,11.01
2018-07-26T15:04:26.318Z,10.45
2018-07-26T15:07:06.246Z,10.81
2018-07-26T15:09:44.266Z,10.07
2018-07-26T15:12:25.805Z,10.97
2018-07-26T15:15:08.392Z,10.91
2018-07-26T15:17:43.835Z,10.27
2018-07-26T15:20:17.600Z,10.29
2018-07-26T15:22:51.040Z,10.91
2018-07-26T15:25:28.123Z,10.54
2018-07-26T15:28:02.282Z,10.47
2018-07-26T15:30:36.272Z,10.44
2018-07-26T15:33:10.317Z,9.99
2018-07-26T15:35:46.968Z,11.25
2018-07-26T15:38:22.164Z,10.00
2018-07-26T15:40:56.044Z,10.00
2018-07-26T15:43:30.656Z,10.48
2018-07-26T15:46:10.606Z,9.80
2018-07-26T15:48:46.554Z,9.38
2018-07-26T15:51:21.229Z,9.81
2018-07-26T15:53:57.971Z,9.48
2018-07-26T15:56:31.774Z,9.77
2018-07-26T15:59:07.617Z,9.80
2018-07-26T16:01:41.906Z,10.39
2018-07-26T16:04:16.372Z,10.06
2018-07-26T16:06:52.504Z,10.31
2018-07-26T16:09:27.623Z,11.41
2018-07-26T16:12:01.585Z,11.96
2018-07-26T16:14:39.422Z,11.73
2018-07-26T16:17:14.228Z,11.19
2018-07-26T16:19:48.065Z,11.91
2018-07-26T16:22:26.631Z,11.36
2018-07-26T16:25:00.814Z,11.39
2018-07-26T16:27:36.570Z,11.60
2018-07-26T16:30:19.302Z,10.47
2018-07-26T16:32:55.012Z,10.87
2018-07-26T16:35:28.326Z,10.75
2018-07-26T16:38:04.026Z,10.05
2018-07-26T16:40:40.200Z,10.00
2018-07-26T16:43:15.604Z,9.19
2018-07-26T16:45:50.095Z,9.37
2018-07-26T16:48:24.337Z,9.53
2018-07-26T16:50:58.620Z,10.10
2018-07-26T16:53:33.720Z,10.13
2018-07-26T16:56:08.615Z,10.89
2018-07-26T16:58:43.666Z,10.22
2018-07-26T17:01:18.907Z,10.55
2018-07-26T17:03:55.582Z,11.24
2018-07-26T17:09:10.593Z,10.77
2018-07-26T17:11:46.096Z,10.78
2018-07-26T17:14:37.261Z,10.68
2018-07-26T17:17:11.620Z,11.51
2018-07-26T17:19:45.591Z,10.86
2018-07-26T17:22:18.012Z,10.83
2018-07-26T17:24:53.916Z,11.24
2018-07-26T17:27:27.991Z,11.58
2018-07-26T17:30:03.085Z,10.49
2018-07-26T17:32:43.217Z,11.22
2018-07-26T17:35:18.815Z,10.46
2018-07-26T17:37:52.531Z,11.12
2018-07-26T17:40:25.919Z,10.59
2018-07-26T17:42:59.319Z,10.89
2018-07-26T17:45:33.433Z,11.51
2018-07-26T17:48:07.546Z,11.61
2018-07-26T17:50:41.803Z,12.11
2018-07-26T17:53:18.423Z,12.02
2018-07-26T17:55:51.947Z,12.08
2018-07-26T17:58:27.674Z,12.09
2018-07-26T18:01:01.762Z,12.69
2018-07-26T18:03:37.336Z,12.96
2018-07-26T18:06:11.807Z,13.41
2018-07-26T18:08:51.636Z,13.89
2018-07-26T18:11:27.427Z,13.74
2018-07-26T18:14:02.041Z,13.54
2018-07-26T18:16:36.665Z,13.73
2018-07-26T18:19:11.583Z,14.20
2018-07-26T18:21:45.682Z,14.98
2018-07-26T18:24:20.562Z,14.26
2018-07-26T18:26:53.921Z,14.55
2018-07-26T18:29:28.369Z,14.65
2018-07-26T18:32:05.352Z,15.15
2018-07-26T18:34:42.444Z,15.20
2018-07-26T18:37:17.591Z,15.92
2018-07-26T18:39:51.318Z,15.54
2018-07-26T18:42:26.234Z,16.25
2018-07-26T18:45:09.432Z,16.16
2018-07-26T18:47:44.216Z,16.18
2018-07-26T18:50:20.276Z,16.77
2018-07-26T18:52:55.657Z,16.84
2018-07-26T18:55:28.454Z,17.01
2018-07-26T18:58:02.491Z,16.49
2018-07-26T19:00:36.658Z,17.35
2018-07-26T19:03:10.237Z,17.00
2018-07-26T19:05:43.476Z,17.05
2018-07-26T19:08:18.246Z,17.43
2018-07-26T19:10:52.153Z,17.39
2018-07-26T19:13:24.705Z,17.56
2018-07-26T19:15:58.718Z,17.37
2018-07-26T19:18:33.278Z,17.45
2018-07-26T19:21:08.140Z,17.58
2018-07-26T19:23:41.869Z,17.65
2018-07-26T19:26:18.159Z,17.90
2018-07-26T19:28:51.544Z,18.20
2018-07-26T19:31:26.526Z,18.44
2018-07-26T19:34:06.515Z,18.71
2018-07-26T19:36:42.621Z,18.23
2018-07-26T19:39:15.694Z,18.85
2018-07-26T19:41:49.596Z,18.99
2018-07-26T19:44:23.173Z,18.61
2018-07-26T19:46:58.441Z,19.01
2018-07-26T19:49:32.613Z,18.95
2018-07-26T19:52:05.724Z,18.95
2018-07-26T19:54:39.388Z,19.45
2018-07-26T19:57:13.538Z,18.95
2018-07-26T19:59:51.273Z,19.29
2018-07-26T20:02:27.347Z,19.05
2018-07-26T20:05:01.160Z,19.22
2018-07-26T20:07:36.673Z,19.18
2018-07-26T20:10:12.368Z,19.70
2018-07-26T20:12:44.794Z,20.23
2018-07-26T20:15:22.253Z,20.41
2018-07-26T20:17:58.824Z,20.56
2018-07-26T20:20:30.464Z,20.47
2018-07-26T20:23:07.420Z,20.40
2018-07-26T20:25:46.360Z,20.80
2018-07-26T20:28:24.837Z,20.62
2018-07-26T20:31:02.449Z,20.29
2018-07-26T20:33:36.083Z,20.26
2018-07-26T20:36:10.605Z,20.30
2018-07-26T20:38:47.805Z,21.05
2018-07-26T20:41:20.959Z,20.16
2018-07-26T20:43:57.720Z,20.58
2018-07-26T20:46:31.258Z,21.00
2018-07-26T20:49:04.393Z,20.93
2018-07-26T20:51:39.913Z,20.92
2018-07-26T20:54:14.111Z,20.87
2018-07-26T20:56:48.622Z,20.64
2018-07-26T20:59:23.825Z,20.55
2018-07-26T21:01:58.971Z,20.40
2018-07-26T21:04:32.095Z,20.71
2018-07-26T21:07:05.385Z,21.04
2018-07-26T21:09:40.430Z,20.65
2018-07-26T21:12:16.019Z,20.67
2018-07-26T21:14:50.514Z,19.89
2018-07-26T21:17:24.335Z,19.61
2018-07-26T21:19:59.672Z,20.41
2018-07-26T21:22:35.269Z,19.60
2018-07-26T21:25:18.993Z,19.76
2018-07-26T21:27:52.949Z,20.25
2018-07-26T21:30:27.336Z,19.81
2018-07-26T21:33:03.382Z,20.16
2018-07-26T21:35:37.303Z,19.96
2018-07-26T21:38:13.162Z,19.46
2018-07-26T21:41:01.206Z,19.87
2018-07-26T21:43:37.209Z,19.48
2018-07-26T21:46:11.357Z,19.93
2018-07-26T21:48:48.710Z,19.64
2018-07-26T21:51:23.268Z,19.22
2018-07-26T21:54:13.401Z,19.62
2018-07-26T21:56:47.316Z,18.74
2018-07-26T21:59:24.893Z,19.12
2018-07-26T22:01:57.084Z,19.14
2018-07-26T22:04:30.323Z,19.66
2018-07-26T22:07:01.886Z,19.66
2018-07-26T22:09:35.712Z,19.61
2018-07-26T22:12:10.065Z,19.40
2018-07-26T22:17:21.322Z,19.74
2018-07-26T22:19:58.626Z,18.92
2018-07-26T22:22:33.110Z,18.96
2018-07-26T22:25:09.232Z,19.20
2018-07-26T22:27:42.771Z,19.82
2018-07-26T22:30:20.124Z,19.18
2018-07-26T22:32:55.794Z,19.31
2018-07-26T22:35:29.363Z,19.28
2018-07-26T22:38:02.838Z,19.10
2018-07-26T22:40:36.272Z,19.28
2018-07-26T22:43:14.685Z,20.06
2018-07-26T22:45:49.026Z,20.04
2018-07-26T22:48:24.634Z,19.66
2018-07-26T22:50:58.039Z,19.70
2018-07-26T22:53:31.763Z,20.00
2018-07-26T22:56:05.988Z,19.40
2018-07-26T22:58:42.631Z,19.92
2018-07-26T23:01:15.232Z,19.78
2018-07-26T23:03:49.064Z,19.73
2018-07-26T23:06:24.499Z,19.95
2018-07-26T23:09:00.645Z,19.97
2018-07-26T23:11:37.286Z,19.89
2018-07-26T23:14:11.657Z,20.31
2018-07-26T23:16:45.449Z,20.46
2018-07-26T23:19:21.454Z,20.30
2018-07-26T23:21:55.822Z,19.49
2018-07-26T23:24:31.922Z,20.11
2018-07-26T23:27:06.223Z,20.41
2018-07-26T23:29:38.731Z,20.05
2018-07-26T23:32:11.793Z,20.67
2018-07-26T23:34:45.781Z,20.37
2018-07-26T23:37:20.816Z,20.68
2018-07-26T23:39:55.011Z,20.08
2018-07-26T23:42:30.683Z,21.00
2018-07-26T23:45:02.233Z,20.54
2018-07-26T23:47:38.463Z,20.74
2018-07-26T23:50:21.463Z,20.20
2018-07-26T23:52:57.424Z,20.91
2018-07-26T23:55:31.123Z,20.34
2018-07-26T23:58:05.413Z,20.31
